createdAt,value
2023-03-17T00:00:47.322Z,82.78
2023-03-17T00:03:29.154Z,83.23
2023-03-17T00:06:00.987Z,83.35
2023-03-17T00:08:34.022Z,83.29
2023-03-17T00:11:04.249Z,83.58
2023-03-17T00:13:34.896Z,83.36
2023-03-17T00:16:11.250Z,83.49
2023-03-17T00:18:41.052Z,83.52
2023-03-17T00:21:13.268Z,83.53
2023-03-17T00:23:48.085Z,83.75
2023-03-17T00:26:18.229Z,84.09
2023-03-17T00:28:50.548Z,84.19
2023-03-17T00:31:23.511Z,84.19
2023-03-17T00:33:55.755Z,84.09
2023-03-17T00:36:28.170Z,84.26
2023-03-17T00:38:58.463Z,84.46
2023-03-17T00:41:29.053Z,84.27
2023-03-17T00:43:58.500Z,84.31
2023-03-17T00:46:34.994Z,84.42
2023-03-17T00:49:11.955Z,84.67
2023-03-17T00:51:44.069Z,84.50
2023-03-17T00:54:13.847Z,84.55
2023-03-17T00:56:44.566Z,84.95
2023-03-17T00:59:21.551Z,84.41
2023-03-17T01:01:51.056Z,84.70
2023-03-17T01:04:20.305Z,84.79
2023-03-17T01:06:50.672Z,84.80
2023-03-17T01:09:25.747Z,85.20
2023-03-17T01:11:55.730Z,85.25
2023-03-17T01:14:25.445Z,85.17
2023-03-17T01:16:55.602Z,85.55
2023-03-17T01:19:24.996Z,85.61
2023-03-17T01:21:54.157Z,85.64
2023-03-17T01:24:23.378Z,85.47
2023-03-17T01:26:52.550Z,85.22
2023-03-17T01:29:22.228Z,85.64
2023-03-17T01:31:52.442Z,85.85
2023-03-17T01:34:22.670Z,85.71
2023-03-17T01:36:53.903Z,85.86
2023-03-17T01:39:23.156Z,85.78
2023-03-17T01:41:56.246Z,85.66
2023-03-17T01:44:25.574Z,86.07
2023-03-17T01:46:55.249Z,85.85
2023-03-17T01:49:28.952Z,85.67
2023-03-17T01:52:04.099Z,86.11
2023-03-17T01:54:40.710Z,86.01
2023-03-17T01:57:16.632Z,86.17
2023-03-17T01:59:51.811Z,85.84
2023-03-17T02:02:25.919Z,86.03
2023-03-17T02:04:57.178Z,86.03
2023-03-17T02:07:27.569Z,86.07
2023-03-17T02:09:58.255Z,86.12
2023-03-17T02:12:30.828Z,86.04
2023-03-17T02:15:00.946Z,86.32
2023-03-17T02:17:31.099Z,85.99
2023-03-17T02:20:13.852Z,85.97
2023-03-17T02:22:45.833Z,85.97
2023-03-17T02:25:19.248Z,85.96
2023-03-17T02:27:51.298Z,86.00
2023-03-17T02:30:24.374Z,85.90
2023-03-17T02:32:54.968Z,85.94
2023-03-17T02:35:24.700Z,85.84
2023-03-17T02:37:54.025Z,85.84
2023-03-17T02:40:23.743Z,85.90
2023-03-17T02:42:53.878Z,85.90
2023-03-17T02:45:24.109Z,85.95
2023-03-17T02:47:53.977Z,86.21
2023-03-17T02:50:27.344Z,86.13
2023-03-17T02:52:58.978Z,86.49
2023-03-17T02:55:28.174Z,86.56
2023-03-17T02:57:58.450Z,86.59
2023-03-17T03:00:29.099Z,86.59
2023-03-17T03:02:59.092Z,86.53
2023-03-17T03:05:28.820Z,86.71
2023-03-17T03:07:58.891Z,86.75
2023-03-17T03:10:28.548Z,86.77
2023-03-17T03:12:58.726Z,86.99
2023-03-17T03:15:27.917Z,87.05
2023-03-17T03:17:58.147Z,87.24
2023-03-17T03:20:27.547Z,86.97
2023-03-17T03:22:56.887Z,87.26
2023-03-17T03:25:26.462Z,87.12
2023-03-17T03:27:56.178Z,87.15
2023-03-17T03:30:26.508Z,87.23
2023-03-17T03:32:56.298Z,86.92
2023-03-17T03:35:26.132Z,87.03
2023-03-17T03:37:55.823Z,87.07
2023-03-17T03:40:25.357Z,86.95
2023-03-17T03:42:54.485Z,87.13
2023-03-17T03:45:24.966Z,86.73
2023-03-17T03:47:54.113Z,86.99
2023-03-17T03:50:23.646Z,86.97
2023-03-17T03:52:52.809Z,86.76
2023-03-17T03:55:22.106Z,86.69
2023-03-17T03:57:51.886Z,86.72
2023-03-17T04:00:22.348Z,86.95
2023-03-17T04:02:52.185Z,87.17
2023-03-17T04:05:21.642Z,86.69
2023-03-17T04:07:52.174Z,86.85
2023-03-17T04:10:22.634Z,87.03
2023-03-17T04:12:53.032Z,87.05
2023-03-17T04:15:22.625Z,87.03
2023-03-17T04:17:55.104Z,87.11
2023-03-17T04:20:24.275Z,86.95
2023-03-17T04:22:53.447Z,86.93
2023-03-17T04:25:22.716Z,87.05
2023-03-17T04:27:51.864Z,87.40
2023-03-17T04:30:21.523Z,87.13
2023-03-17T04:32:50.700Z,87.12
2023-03-17T04:35:23.098Z,86.85
2023-03-17T04:37:52.219Z,87.03
2023-03-17T04:40:22.321Z,86.98
2023-03-17T04:42:52.021Z,87.18
2023-03-17T04:45:22.368Z,87.35
2023-03-17T04:47:51.487Z,86.96
2023-03-17T04:50:20.890Z,86.94
2023-03-17T04:52:50.109Z,86.78
2023-03-17T04:55:21.249Z,86.85
2023-03-17T04:57:50.504Z,86.84
2023-03-17T05:00:21.356Z,86.89
2023-03-17T05:02:50.575Z,86.88
2023-03-17T05:05:20.359Z,86.80
2023-03-17T05:07:50.157Z,86.92
2023-03-17T05:10:19.481Z,87.13
2023-03-17T05:12:48.662Z,87.12
2023-03-17T05:15:18.304Z,87.20
2023-03-17T05:17:47.482Z,87.03
2023-03-17T05:20:17.184Z,86.92
2023-03-17T05:22:46.585Z,86.99
2023-03-17T05:25:17.440Z,87.06
2023-03-17T05:27:47.245Z,86.88
2023-03-17T05:30:18.391Z,87.09
2023-03-17T05:32:47.610Z,86.98
2023-03-17T05:35:18.215Z,87.15
2023-03-17T05:37:47.873Z,87.00
2023-03-17T05:40:18.050Z,87.11
2023-03-17T05:42:47.506Z,87.15
2023-03-17T05:45:18.291Z,87.37
2023-03-17T05:47:47.721Z,86.85
2023-03-17T05:50:18.334Z,87.03
2023-03-17T05:52:48.213Z,86.93
2023-03-17T05:55:17.549Z,86.90
2023-03-17T05:57:46.763Z,87.02
2023-03-17T06:00:21.018Z,87.03
2023-03-17T06:02:50.262Z,87.01
2023-03-17T06:05:20.087Z,87.01
2023-03-17T06:07:54.943Z,87.07
2023-03-17T06:10:26.593Z,87.02
2023-03-17T06:12:57.224Z,86.66
2023-03-17T06:15:27.201Z,87.03
2023-03-17T06:17:56.394Z,86.95
2023-03-17T06:20:27.169Z,86.99
2023-03-17T06:23:04.303Z,86.91
2023-03-17T06:25:35.569Z,86.84
2023-03-17T06:28:06.032Z,86.96
2023-03-17T06:30:43.137Z,86.95
2023-03-17T06:33:12.549Z,86.66
2023-03-17T06:35:41.913Z,87.03
2023-03-17T06:38:11.429Z,87.13
2023-03-17T06:40:40.855Z,86.80
2023-03-17T06:43:09.999Z,86.80
2023-03-17T06:45:39.478Z,86.88
2023-03-17T06:48:08.673Z,87.06
2023-03-17T06:50:38.246Z,86.82
2023-03-17T06:53:07.685Z,86.85
2023-03-17T06:55:36.932Z,86.54
2023-03-17T06:58:06.144Z,86.40
2023-03-17T07:00:35.301Z,86.44
2023-03-17T07:03:05.982Z,86.18
2023-03-17T07:05:35.317Z,86.44
2023-03-17T07:08:05.001Z,86.08
2023-03-17T07:10:34.203Z,85.72
2023-03-17T07:13:05.480Z,85.96
2023-03-17T07:15:35.505Z,85.97
2023-03-17T07:18:06.464Z,85.74
2023-03-17T07:20:35.928Z,85.64
2023-03-17T07:23:05.070Z,85.46
2023-03-17T07:25:36.296Z,85.19
2023-03-17T07:28:05.744Z,85.27
2023-03-17T07:30:36.089Z,84.72
2023-03-17T07:33:05.348Z,85.00
2023-03-17T07:35:34.890Z,84.60
2023-03-17T07:38:06.049Z,84.44
2023-03-17T07:40:35.619Z,84.35
2023-03-17T07:43:05.157Z,84.14
2023-03-17T07:45:35.533Z,83.87
2023-03-17T07:48:06.594Z,83.80
2023-03-17T07:50:37.078Z,83.67
2023-03-17T07:53:06.277Z,83.63
2023-03-17T07:55:37.309Z,83.44
2023-03-17T07:58:08.302Z,83.18
2023-03-17T08:00:38.160Z,82.93
2023-03-17T08:03:10.750Z,82.89
2023-03-17T08:05:41.275Z,82.69
2023-03-17T08:08:10.592Z,82.32
2023-03-17T08:10:39.906Z,81.80
2023-03-17T08:13:10.022Z,81.59
2023-03-17T08:15:39.241Z,81.03
2023-03-17T08:18:09.433Z,80.63
2023-03-17T08:20:38.629Z,80.40
2023-03-17T08:23:07.996Z,80.68
2023-03-17T08:25:37.203Z,80.59
2023-03-17T08:28:07.228Z,79.96
2023-03-17T08:30:37.971Z,79.46
2023-03-17T08:33:08.574Z,78.45
2023-03-17T08:35:40.922Z,78.25
2023-03-17T08:38:11.811Z,77.60
2023-03-17T08:40:42.171Z,77.78
2023-03-17T08:43:11.348Z,76.25
2023-03-17T08:45:41.838Z,75.59
2023-03-17T08:48:11.041Z,75.37
2023-03-17T08:50:41.415Z,74.66
2023-03-17T08:53:11.360Z,74.04
2023-03-17T08:55:40.625Z,73.08
2023-03-17T08:58:09.928Z,73.55
2023-03-17T09:00:40.291Z,72.86
2023-03-17T09:03:10.261Z,71.91
2023-03-17T09:05:39.436Z,71.77
2023-03-17T09:08:08.823Z,71.78
2023-03-17T09:10:38.040Z,71.28
2023-03-17T09:13:08.532Z,70.56
2023-03-17T09:15:38.218Z,70.40
2023-03-17T09:18:08.781Z,69.59
2023-03-17T09:20:39.390Z,68.85
2023-03-17T09:23:11.166Z,67.14
2023-03-17T09:25:42.294Z,67.05
2023-03-17T09:28:13.437Z,67.30
2023-03-17T09:30:43.216Z,66.76
2023-03-17T09:33:14.302Z,66.45
2023-03-17T09:35:43.534Z,66.45
2023-03-17T09:38:13.134Z,65.30
2023-03-17T09:40:48.526Z,64.86
2023-03-17T09:43:28.776Z,63.73
2023-03-17T09:46:03.583Z,64.85
2023-03-17T09:48:50.095Z,63.49
2023-03-17T09:51:20.675Z,63.14
2023-03-17T09:53:59.298Z,62.64
2023-03-17T09:56:32.521Z,62.94
2023-03-17T09:59:06.293Z,62.75
2023-03-17T10:01:37.067Z,61.73
2023-03-17T10:04:06.481Z,61.00
2023-03-17T10:06:41.162Z,61.13
2023-03-17T10:09:18.669Z,61.12
2023-03-17T10:11:52.288Z,60.86
2023-03-17T10:14:35.211Z,60.58
2023-03-17T10:17:12.418Z,60.67
2023-03-17T10:19:45.944Z,60.05
2023-03-17T10:22:22.165Z,60.26
2023-03-17T10:24:55.071Z,58.98
2023-03-17T10:27:24.926Z,58.93
2023-03-17T10:29:54.167Z,59.35
2023-03-17T10:32:23.450Z,58.96
2023-03-17T10:34:54.272Z,59.03
2023-03-17T10:37:26.256Z,58.72
2023-03-17T10:39:58.003Z,57.74
2023-03-17T10:42:29.040Z,58.57
2023-03-17T10:45:01.525Z,57.14
2023-03-17T10:47:35.511Z,57.67
2023-03-17T10:50:20.427Z,57.89
2023-03-17T10:52:54.535Z,57.62
2023-03-17T10:55:29.456Z,56.25
2023-03-17T10:58:04.205Z,56.46
2023-03-17T11:00:37.851Z,56.78
2023-03-17T11:03:16.616Z,57.34
2023-03-17T11:06:00.868Z,57.67
2023-03-17T11:08:34.905Z,56.56
2023-03-17T11:11:08.495Z,56.68
2023-03-17T11:13:38.177Z,56.71
2023-03-17T11:16:15.997Z,56.16
2023-03-17T11:18:47.881Z,56.11
2023-03-17T11:21:23.755Z,55.53
2023-03-17T11:23:55.043Z,55.69
2023-03-17T11:26:47.970Z,55.53
2023-03-17T11:29:23.999Z,55.12
2023-03-17T11:32:02.003Z,55.26
2023-03-17T11:34:47.719Z,54.22
2023-03-17T11:37:29.991Z,53.70
2023-03-17T11:40:13.982Z,53.86
2023-03-17T11:42:54.780Z,53.87
2023-03-17T11:45:29.318Z,54.36
2023-03-17T11:48:23.243Z,54.18
2023-03-17T11:50:56.521Z,53.11
2023-03-17T11:53:38.810Z,52.74
2023-03-17T11:56:14.787Z,52.60
2023-03-17T11:58:47.788Z,52.40
2023-03-17T12:01:21.750Z,51.92
2023-03-17T12:03:57.672Z,52.06
2023-03-17T12:06:31.964Z,51.54
2023-03-17T12:09:09.806Z,51.87
2023-03-17T12:11:44.031Z,51.27
2023-03-17T12:14:26.484Z,50.51
2023-03-17T12:17:05.239Z,50.20
2023-03-17T12:19:42.685Z,50.79
2023-03-17T12:22:21.220Z,50.67
2023-03-17T12:25:02.314Z,51.08
2023-03-17T12:27:36.878Z,51.14
2023-03-17T12:30:15.443Z,51.49
2023-03-17T12:32:52.603Z,50.50
2023-03-17T12:35:28.356Z,49.64
2023-03-17T12:38:00.802Z,49.56
2023-03-17T12:40:37.487Z,49.74
2023-03-17T12:43:46.305Z,50.24
2023-03-17T12:46:29.381Z,49.23
2023-03-17T12:49:32.689Z,49.06
2023-03-17T12:52:23.855Z,48.58
2023-03-17T12:54:53.988Z,49.07
2023-03-17T12:57:27.994Z,48.70
2023-03-17T13:00:05.452Z,47.85
2023-03-17T13:02:38.739Z,47.85
2023-03-17T13:05:14.256Z,48.82
2023-03-17T13:07:51.203Z,48.97
2023-03-17T13:10:39.523Z,49.20
2023-03-17T13:13:35.128Z,49.31
2023-03-17T13:16:26.694Z,49.36
2023-03-17T13:19:18.664Z,48.14
2023-03-17T13:21:51.968Z,48.94
2023-03-17T13:24:48.795Z,49.09
2023-03-17T13:27:45.481Z,48.71
2023-03-17T13:30:56.359Z,48.55
2023-03-17T13:33:32.046Z,48.88
2023-03-17T13:36:19.980Z,48.81
2023-03-17T13:39:18.204Z,48.55
2023-03-17T13:42:05.494Z,47.97
2023-03-17T13:45:00.654Z,48.43
2023-03-17T13:47:35.001Z,48.63
2023-03-17T13:50:12.806Z,48.48
2023-03-17T13:52:47.132Z,48.45
2023-03-17T13:56:02.598Z,47.66
2023-03-17T13:58:49.885Z,47.82
2023-03-17T14:01:21.003Z,48.11
2023-03-17T14:03:53.516Z,46.68
2023-03-17T14:06:27.499Z,45.77
2023-03-17T14:09:02.454Z,45.34
2023-03-17T14:11:35.315Z,44.18
2023-03-17T14:14:29.673Z,45.09
2023-03-17T14:17:08.663Z,44.71
2023-03-17T14:19:40.863Z,45.62
2023-03-17T14:22:24.236Z,45.46
2023-03-17T14:24:55.001Z,45.11
2023-03-17T14:27:26.562Z,45.49
2023-03-17T14:29:55.988Z,45.41
2023-03-17T14:32:25.854Z,44.56
2023-03-17T14:34:59.074Z,44.63
2023-03-17T14:37:29.476Z,45.15
2023-03-17T14:39:59.101Z,45.57
2023-03-17T14:42:29.949Z,45.93
2023-03-17T14:45:04.458Z,45.32
2023-03-17T14:47:39.297Z,45.34
2023-03-17T14:50:17.824Z,45.35
2023-03-17T14:52:49.270Z,45.33
2023-03-17T14:55:19.602Z,45.52
2023-03-17T14:57:53.593Z,45.84
2023-03-17T15:00:38.030Z,45.72
2023-03-17T15:03:18.861Z,46.09
2023-03-17T15:05:49.143Z,45.80
2023-03-17T15:08:40.772Z,46.17
2023-03-17T15:11:18.525Z,46.11
2023-03-17T15:13:49.258Z,46.07
2023-03-17T15:16:23.171Z,46.13
2023-03-17T15:19:05.711Z,46.31
2023-03-17T15:21:38.609Z,46.29
2023-03-17T15:24:25.968Z,46.32
2023-03-17T15:27:04.241Z,46.27
2023-03-17T15:29:34.335Z,46.30
2023-03-17T15:32:15.205Z,46.47
2023-03-17T15:34:44.399Z,46.67
2023-03-17T15:37:17.589Z,46.50
2023-03-17T15:39:47.389Z,46.66
2023-03-17T15:42:18.955Z,46.81
2023-03-17T15:44:48.159Z,46.68
2023-03-17T15:47:19.509Z,47.04
2023-03-17T15:49:50.571Z,46.81
2023-03-17T15:52:24.306Z,46.84
2023-03-17T15:54:54.861Z,46.73
2023-03-17T15:57:24.931Z,47.21
2023-03-17T15:59:54.160Z,47.32
2023-03-17T16:02:32.136Z,47.08
2023-03-17T16:05:05.371Z,46.92
2023-03-17T16:07:34.856Z,46.75
2023-03-17T16:10:22.241Z,46.79
2023-03-17T16:12:51.826Z,47.33
2023-03-17T16:15:23.804Z,46.93
2023-03-17T16:17:55.560Z,46.92
2023-03-17T16:20:27.014Z,47.31
2023-03-17T16:22:58.748Z,47.29
2023-03-17T16:25:29.557Z,47.33
2023-03-17T16:28:01.714Z,47.60
2023-03-17T16:30:33.243Z,47.90
2023-03-17T16:33:09.039Z,48.06
2023-03-17T16:35:38.328Z,48.26
2023-03-17T16:38:10.959Z,48.58
2023-03-17T16:40:40.889Z,48.58
2023-03-17T16:43:25.311Z,48.47
2023-03-17T16:45:57.170Z,48.53
2023-03-17T16:48:26.816Z,48.50
2023-03-17T16:50:56.703Z,48.70
2023-03-17T16:53:26.037Z,48.74
2023-03-17T16:55:55.682Z,49.04
2023-03-17T16:58:26.889Z,49.13
2023-03-17T17:00:59.036Z,49.09
2023-03-17T17:03:30.929Z,49.10
2023-03-17T17:06:00.092Z,49.19
2023-03-17T17:08:29.338Z,49.24
2023-03-17T17:10:58.663Z,49.25
2023-03-17T17:13:27.861Z,49.19
2023-03-17T17:15:57.229Z,49.29
2023-03-17T17:18:26.448Z,49.25
2023-03-17T17:20:56.640Z,49.19
2023-03-17T17:23:26.964Z,49.37
2023-03-17T17:25:56.121Z,49.14
2023-03-17T17:28:26.547Z,49.27
2023-03-17T17:30:57.995Z,49.09
2023-03-17T17:33:27.631Z,48.95
2023-03-17T17:35:56.938Z,49.32
2023-03-17T17:38:27.794Z,49.32
2023-03-17T17:40:58.414Z,49.36
2023-03-17T17:43:27.696Z,49.09
2023-03-17T17:45:56.862Z,49.18
2023-03-17T17:48:27.495Z,49.22
2023-03-17T17:50:57.718Z,49.09
2023-03-17T17:53:26.914Z,49.39
2023-03-17T17:55:57.163Z,49.23
2023-03-17T17:58:26.797Z,49.50
2023-03-17T18:00:57.004Z,49.53
2023-03-17T18:03:26.974Z,49.70
2023-03-17T18:05:58.485Z,49.97
2023-03-17T18:08:28.305Z,49.92
2023-03-17T18:10:57.557Z,50.03
2023-03-17T18:13:26.769Z,50.21
2023-03-17T18:15:55.970Z,50.23
2023-03-17T18:18:25.231Z,50.49
2023-03-17T18:20:54.413Z,50.68
2023-03-17T18:23:23.620Z,50.81
2023-03-17T18:26:00.280Z,50.93
2023-03-17T18:28:29.566Z,51.01
2023-03-17T18:31:03.542Z,51.05
2023-03-17T18:33:33.048Z,51.13
2023-03-17T18:36:05.342Z,51.11
2023-03-17T18:38:35.187Z,51.11
2023-03-17T18:41:06.984Z,51.18
2023-03-17T18:43:36.179Z,51.21
2023-03-17T18:46:06.045Z,51.26
2023-03-17T18:48:35.742Z,51.64
2023-03-17T18:51:05.576Z,51.48
2023-03-17T18:53:35.022Z,51.44
2023-03-17T18:56:04.215Z,51.39
2023-03-17T18:58:33.365Z,51.45
2023-03-17T19:01:03.372Z,51.26
2023-03-17T19:03:32.755Z,51.38
2023-03-17T19:06:10.580Z,51.49
2023-03-17T19:08:40.065Z,51.40
2023-03-17T19:11:11.007Z,51.39
2023-03-17T19:13:41.837Z,51.61
2023-03-17T19:16:11.601Z,51.26
2023-03-17T19:18:42.226Z,51.60
2023-03-17T19:21:12.649Z,51.78
2023-03-17T19:23:42.307Z,51.57
2023-03-17T19:26:11.530Z,51.70
2023-03-17T19:28:40.771Z,51.81
2023-03-17T19:31:10.187Z,51.89
2023-03-17T19:33:39.600Z,51.75
2023-03-17T19:36:11.687Z,51.91
2023-03-17T19:38:41.266Z,52.45
2023-03-17T19:41:10.601Z,52.42
2023-03-17T19:43:41.654Z,52.70
2023-03-17T19:46:12.230Z,52.84
2023-03-17T19:48:41.543Z,52.97
2023-03-17T19:51:10.899Z,53.22
2023-03-17T19:53:40.457Z,53.27
2023-03-17T19:56:10.399Z,53.71
2023-03-17T19:58:39.989Z,53.74
2023-03-17T20:01:09.460Z,54.02
2023-03-17T20:03:41.989Z,54.22
2023-03-17T20:06:12.123Z,54.55
2023-03-17T20:08:42.696Z,54.65
2023-03-17T20:11:13.388Z,54.75
2023-03-17T20:13:42.673Z,55.00
2023-03-17T20:16:12.395Z,55.27
2023-03-17T20:18:41.707Z,55.38
2023-03-17T20:21:13.936Z,55.59
2023-03-17T20:23:43.124Z,55.56
2023-03-17T20:26:12.554Z,55.60
2023-03-17T20:28:41.817Z,55.47
2023-03-17T20:31:11.108Z,55.63
2023-03-17T20:33:40.702Z,56.01
2023-03-17T20:36:12.245Z,55.72
2023-03-17T20:38:43.166Z,55.69
2023-03-17T20:41:14.200Z,55.82
2023-03-17T20:43:43.424Z,55.63
2023-03-17T20:46:16.914Z,55.67
2023-03-17T20:48:47.751Z,56.07
2023-03-17T20:51:17.402Z,56.13
2023-03-17T20:53:48.997Z,55.94
2023-03-17T20:56:21.777Z,55.90
2023-03-17T20:58:52.632Z,55.99
2023-03-17T21:01:22.955Z,55.97
2023-03-17T21:03:52.976Z,55.76
2023-03-17T21:06:24.796Z,55.72
2023-03-17T21:08:55.691Z,55.66
2023-03-17T21:11:26.094Z,55.86
2023-03-17T21:13:55.602Z,55.72
2023-03-17T21:16:27.233Z,55.81
2023-03-17T21:18:56.564Z,55.74
2023-03-17T21:21:26.500Z,55.61
2023-03-17T21:23:56.010Z,55.48
2023-03-17T21:26:25.207Z,55.39
2023-03-17T21:28:56.043Z,55.52
2023-03-17T21:31:25.806Z,55.24
2023-03-17T21:33:54.999Z,55.23
2023-03-17T21:36:24.591Z,55.32
2023-03-17T21:38:53.782Z,55.37
2023-03-17T21:41:29.801Z,55.33
2023-03-17T21:43:59.163Z,55.38
2023-03-17T21:46:29.065Z,55.56
2023-03-17T21:48:58.682Z,55.21
2023-03-17T21:51:30.399Z,55.44
2023-03-17T21:53:59.929Z,55.10
2023-03-17T21:56:29.488Z,54.88
2023-03-17T21:58:58.937Z,55.15
2023-03-17T22:01:28.747Z,55.17
2023-03-17T22:03:59.065Z,54.97
2023-03-17T22:06:28.955Z,55.32
2023-03-17T22:08:58.193Z,55.11
2023-03-17T22:11:27.606Z,54.97
2023-03-17T22:13:58.392Z,55.14
2023-03-17T22:16:27.625Z,55.27
2023-03-17T22:18:56.846Z,55.18
2023-03-17T22:21:26.241Z,55.32
2023-03-17T22:23:55.496Z,55.26
2023-03-17T22:26:24.664Z,55.43
2023-03-17T22:28:54.176Z,55.27
2023-03-17T22:31:26.671Z,55.35
2023-03-17T22:33:58.704Z,55.34
2023-03-17T22:36:29.165Z,55.40
2023-03-17T22:38:59.297Z,55.32
2023-03-17T22:41:30.177Z,55.55
2023-03-17T22:43:59.681Z,55.53
2023-03-17T22:46:29.151Z,55.35
2023-03-17T22:48:58.292Z,55.64
2023-03-17T22:51:27.889Z,55.53
2023-03-17T22:53:57.746Z,55.66
2023-03-17T22:56:27.588Z,55.52
2023-03-17T22:58:57.016Z,55.48
2023-03-17T23:01:26.796Z,55.75
2023-03-17T23:03:56.445Z,55.85
2023-03-17T23:06:25.667Z,55.56
2023-03-17T23:08:54.874Z,55.79
2023-03-17T23:11:26.318Z,55.89
2023-03-17T23:13:56.882Z,55.96
2023-03-17T23:16:26.657Z,55.91
2023-03-17T23:18:55.873Z,55.83
2023-03-17T23:21:28.984Z,55.96
2023-03-17T23:23:58.570Z,56.06
2023-03-17T23:26:28.559Z,55.88
2023-03-17T23:28:57.836Z,56.20
2023-03-17T23:31:27.065Z,56.07
2023-03-17T23:33:56.571Z,56.08
2023-03-17T23:36:25.785Z,56.16
2023-03-17T23:38:54.968Z,56.38
2023-03-17T23:41:24.130Z,56.35
2023-03-17T23:43:53.370Z,56.50
2023-03-17T23:46:22.567Z,56.23
2023-03-17T23:48:52.597Z,56.30
2023-03-17T23:51:21.813Z,56.38
2023-03-17T23:53:52.364Z,56.58
2023-03-17T23:56:21.731Z,56.60
2023-03-17T23:58:51.575Z,56.55
